Capitol Logistics 340




KMSY
Louis Armstrong New Orleans International Airport
New Orleans, Louisiana
KBWI
Baltimore/Washington International Thurgood Marshall Airport
Baltimore, Maryland

Activity Log

Date Flight Route Aircraft Duration
No Flights Yet

Route Details

Aircraft Information
Primary: Boeing 737-800BCF
Backup: Boeing 757-200SF
Route Data
Distance: 868nm
Duration: 2h 16m
Recm'd Route: CATLN Q56 KELLN Q58 PEETT THHMP RAVNN6
Origin Wx: KMSY 141953Z 11009KT 10SM FEW015 BKN040 BKN065 OVC200 21/17 A2998 RMK AO2 SLP155 T02110172
Dest. Wx: KBWI 141954Z 15004KT 2SM -RA BR FEW025 BKN055 OVC080 15/13 A2998 RMK AO2 SFC VIS 5 SLP150 P0003 T01500128
Notes: